Date,TemperatureHighF,TemperatureAvgF,TemperatureLowF,DewpointHighF,DewpointAvgF,DewpointLowF,HumidityHigh,HumidityAvg,HumidityLow,PressureMaxIn,PressureMinIn,WindSpeedMaxMPH,WindSpeedAvgMPH,GustSpeedMaxMPH,PrecipitationSumIn
2013-1-1,32.7,28.4,19.9,29.8,24.0,15.5,89,83,73,30.24,30.12,8,1,11,0.00
2013-1-2,25.0,16.0,8.4,18.4,10.9,2.8,86,80,71,30.34,30.21,3,0,3,0.00
2013-1-3,32.4,18.5,3.0,23.6,12.4,-1.8,82,77,66,30.38,30.28,10,2,10,0.00
2013-1-4,29.7,29.4,29.1,23.8,23.4,22.2,79,78,75,30.37,30.35,12,4,12,0.00
2013-1-5,41.0,35.2,14.2,30.0,26.5,10.0,86,71,63,30.42,30.23,7,1,7,0.00
2013-1-6,38.3,32.0,25.9,31.9,26.2,20.4,85,79,74,30.43,30.10,12,3,12,0.00
2013-1-7,38.8,27.5,16.3,29.4,21.8,12.5,87,79,67,30.55,30.32,6,1,6,0.00
2013-1-8,47.1,30.5,18.3,35.3,24.5,14.4,87,79,64,30.40,30.29,5,0,5,0.00
2013-1-9,48.0,39.4,28.2,40.7,33.8,23.7,87,80,71,30.58,30.28,8,1,8,0.04
2013-1-10,40.6,34.1,26.4,36.1,29.8,23.1,89,84,77,30.61,30.21,6,0,6,0.00
2013-1-11,60.6,51.0,40.5,55.0,46.2,35.7,89,84,73,30.21,29.97,11,2,11,0.49
2013-1-12,66.0,57.0,48.9,59.5,53.0,45.0,89,87,78,30.12,29.89,9,1,9,0.08
2013-1-13,63.3,52.7,33.6,59.7,49.4,30.2,90,89,86,30.23,29.81,18,4,18,0.55
2013-1-14,33.4,25.3,22.5,30.2,20.9,18.3,88,83,80,30.53,30.22,12,3,12,0.00
2013-1-15,32.2,27.7,22.8,24.9,22.1,18.1,85,79,72,30.46,30.18,7,2,7,0.00
2013-1-16,36.3,31.8,29.3,28.6,25.8,24.0,86,79,69,30.19,30.06,8,1,8,0.00
2013-1-17,40.8,32.7,25.0,31.9,25.6,17.8,83,75,66,30.47,30.16,12,2,12,0.00
2013-1-18,38.8,28.9,18.7,25.3,19.7,14.0,83,69,52,30.59,30.28,9,2,9,0.00
2013-1-19,53.4,43.3,34.9,32.8,28.8,25.2,68,57,43,30.28,29.98,12,4,12,0.00
2013-1-20,44.8,31.4,23.5,35.4,18.8,12.7,72,60,50,30.32,29.98,14,4,14,0.00
2013-1-21,23.7,18.8,9.7,14.9,9.3,-1.0,77,66,58,30.31,30.17,18,6,18,0.00
2013-1-22,17.2,11.0,5.4,3.5,0.6,-2.5,72,63,54,30.45,30.30,10,3,10,0.00
2013-1-23,22.1,17.2,10.9,12.9,7.0,1.2,74,64,52,30.41,30.17,7,1,7,0.00
2013-1-24,23.2,17.5,10.6,13.9,8.1,3.2,78,67,55,30.65,30.20,10,2,10,0.00
2013-1-25,28.8,22.9,18.7,20.1,14.4,8.6,79,70,60,30.52,30.11,7,0,7,0.00
2013-1-26,31.5,23.9,14.2,21.2,16.8,8.1,82,74,65,30.51,30.18,8,2,8,0.02
2013-1-27,36.7,25.4,12.0,29.6,19.1,6.7,87,77,68,30.53,30.24,2,0,2,0.25
2013-1-28,50.4,44.7,33.3,47.0,41.6,29.8,89,89,87,30.24,30.10,11,2,11,0.24
2013-1-29,61.5,56.1,48.7,56.8,52.0,45.7,89,86,81,30.14,29.66,11,3,11,0.00
2013-1-30,64.2,51.6,31.8,58.1,46.9,26.3,89,84,77,29.66,29.38,29,6,29,0.72
2013-1-31,31.6,25.6,15.1,26.2,18.7,7.9,85,75,59,30.12,29.63,34,7,34,0.00
2013-2-1,18.0,11.5,5.9,8.2,3.6,-1.3,77,70,64,30.46,30.12,25,4,25,0.00
2013-2-2,33.1,23.0,11.1,25.8,17.4,4.4,85,79,73,30.39,30.06,9,2,9,0.00
2013-2-3,26.2,20.6,15.1,21.7,14.5,10.2,83,77,67,30.19,30.01,10,3,10,0.00
2013-2-4,34.5,25.8,13.6,28.4,20.8,9.4,87,81,69,30.20,29.90,8,0,8,0.00
2013-2-5,35.4,30.4,23.2,29.4,25.2,19.6,87,81,70,30.09,29.93,10,2,10,0.00
2013-2-6,40.1,32.6,27.7,29.2,25.8,22.3,83,76,64,30.35,30.09,8,1,8,0.00
2013-2-7,54.3,39.2,28.2,40.4,31.7,23.4,84,75,59,30.30,29.88,7,0,7,0.00
2013-2-8,47.8,35.7,29.1,40.2,29.9,21.2,87,80,71,30.41,29.88,47,5,47,0.06
2013-2-9,39.7,29.3,20.7,25.4,21.3,16.3,85,72,55,30.51,30.32,7,0,8,0.00
2013-2-10,52.3,40.2,26.8,42.4,31.3,20.8,87,71,53,30.32,29.88,13,2,13,0.00
2013-2-11,49.3,43.9,35.4,46.0,35.2,26.9,89,72,55,30.12,29.83,34,6,34,0.00
2013-2-12,49.3,36.4,28.0,32.6,26.9,22.6,81,69,49,30.22,30.02,8,2,8,0.00
2013-2-13,39.4,31.6,28.9,30.2,26.4,24.6,87,81,68,30.03,29.87,7,1,7,0.00
2013-2-14,52.2,38.8,30.7,39.7,32.2,26.2,88,78,59,30.08,29.89,13,3,13,0.00
2013-2-15,41.0,30.5,17.2,32.6,25.5,13.3,86,82,68,30.24,30.06,17,2,17,0.00
2013-2-16,27.1,19.0,10.6,20.8,13.0,6.9,86,78,65,30.23,30.12,45,3,45,0.00
2013-2-17,31.3,19.9,8.4,18.0,11.4,3.3,82,70,53,30.31,30.19,16,1,16,0.00
2013-2-18,56.3,38.0,18.9,39.2,26.3,11.2,80,64,50,30.30,29.82,38,3,45,0.04
2013-2-19,44.2,30.8,23.2,39.8,24.7,14.8,88,78,67,30.18,29.73,42,8,42,0.14
2013-2-20,25.0,21.2,16.7,16.2,13.1,9.2,76,71,65,30.39,30.17,15,6,15,0.00
2013-2-21,32.4,25.2,21.0,22.2,17.9,13.7,81,74,64,30.44,30.16,10,2,10,0.00
2013-2-22,39.4,33.0,27.3,35.7,29.5,22.2,89,87,81,30.16,29.99,10,1,10,0.02
2013-2-23,41.5,33.8,29.5,30.4,27.0,23.8,88,77,62,30.09,30.00,10,2,10,0.00
2013-2-24,39.9,31.0,26.4,28.3,23.2,20.6,82,73,61,30.25,30.03,12,2,12,0.00
2013-2-25,45.0,32.9,21.2,30.6,24.5,17.3,86,72,55,30.27,30.02,10,1,10,0.00
2013-2-26,43.9,38.8,33.6,40.9,33.6,25.3,89,82,67,30.02,29.49,15,2,15,0.59
2013-2-27,41.7,36.7,32.4,38.7,33.1,28.9,89,87,81,29.79,29.59,14,4,14,0.08
2013-2-28,36.9,33.8,31.6,32.5,30.4,28.1,89,87,84,30.03,29.76,17,4,17,0.07
2013-3-1,36.0,32.7,28.2,31.1,28.2,21.9,89,84,75,30.14,30.01,37,3,37,0.00
2013-3-2,28.2,27.0,25.9,22.5,20.9,19.6,81,78,74,30.16,30.11,18,3,18,0.00
2013-3-3,31.3,27.9,24.6,21.6,20.2,18.8,82,73,63,30.17,30.12,20,2,20,0.00
2013-3-4,44.8,30.7,17.4,28.4,22.2,13.3,86,72,51,30.25,30.10,6,0,6,0.02
2013-3-5,37.2,34.0,30.7,32.3,29.9,27.9,89,85,76,30.13,29.69,8,0,8,0.18
2013-3-6,36.0,30.9,27.5,29.5,26.6,24.6,90,84,75,30.33,29.71,14,1,14,0.04
2013-3-7,43.5,34.4,28.9,34.4,28.2,21.3,88,78,67,30.47,30.30,7,0,7,0.00
2013-3-8,45.5,31.0,18.7,30.8,22.9,14.7,85,73,55,30.56,30.46,7,0,7,0.00
2013-3-9,52.3,39.2,25.0,39.6,31.1,20.4,86,74,61,30.48,30.12,2,0,2,0.00
2013-3-10,67.8,55.4,43.3,44.0,39.0,34.9,72,55,39,30.12,29.92,13,2,44,0.02
2013-3-11,55.2,47.8,37.6,49.2,42.7,31.7,89,83,64,29.95,29.68,39,5,39,0.92
2013-3-12,44.4,36.6,32.9,32.1,29.5,25.8,86,76,60,30.12,29.94,32,5,32,0.00
2013-3-13,33.6,29.7,25.9,29.1,23.6,20.5,86,78,64,30.37,30.08,41,6,41,0.00
2013-3-14,44.2,31.7,21.7,26.1,21.6,17.3,83,68,45,30.43,30.23,16,2,16,0.00
2013-3-15,53.8,40.0,28.8,40.5,32.3,23.0,86,74,59,30.25,29.89,9,1,9,0.00
2013-3-16,54.0,42.8,34.3,48.6,38.2,30.5,89,84,77,30.14,29.71,21,3,21,0.10
2013-3-17,38.5,34.5,32.2,30.8,28.1,25.6,87,77,70,30.25,30.11,10,3,10,0.00
2013-3-18,49.1,39.0,32.4,45.8,35.5,27.9,89,87,73,30.11,29.69,27,3,27,0.61
2013-3-19,42.1,35.1,27.3,33.6,23.6,19.3,84,64,44,30.18,29.89,34,7,34,0.00
2013-3-20,34.3,30.0,24.1,20.9,17.8,11.9,71,60,51,30.16,30.04,27,5,27,0.00
2013-3-21,32.5,25.0,19.0,18.8,14.9,11.7,77,66,55,30.11,30.02,14,4,14,0.00
2013-3-22,45.5,31.0,19.4,25.3,19.2,13.1,79,63,44,30.15,30.07,9,1,9,0.00
2013-3-23,49.8,36.6,26.2,28.8,24.6,18.9,80,63,43,30.16,30.01,7,0,7,0.00
2013-3-24,36.0,32.8,31.1,29.8,27.2,24.2,89,80,62,30.01,29.54,30,2,30,0.00
2013-3-25,36.9,32.2,28.9,30.8,28.2,26.1,89,85,78,30.02,29.53,15,3,15,0.16
2013-3-26,41.4,34.6,30.9,32.0,28.6,25.8,87,79,67,30.30,30.02,28,4,28,0.09
2013-3-27,43.3,35.3,28.8,32.7,27.0,23.7,83,72,57,30.38,30.29,9,3,12,0.00
2013-3-28,51.6,38.0,27.1,32.9,27.0,21.1,80,66,49,30.44,30.36,10,1,10,0.00
2013-3-29,58.8,40.6,26.8,37.0,29.8,22.1,85,67,43,30.41,30.29,8,1,8,0.00
2013-3-30,61.2,44.6,27.7,38.6,31.9,23.4,86,64,40,30.33,30.04,8,1,8,0.00
2013-3-31,60.6,49.6,44.1,46.2,39.8,32.5,83,70,51,30.04,29.86,14,2,14,0.00
2013-4-1,46.8,40.5,32.4,40.1,27.9,19.3,81,62,45,30.22,29.88,24,3,24,0.00
2013-4-2,47.1,34.3,22.3,24.5,20.1,15.7,78,58,38,30.35,30.22,20,2,20,0.00
2013-4-3,48.6,35.0,21.9,23.5,18.7,14.7,76,53,36,30.50,30.34,10,1,10,0.00
2013-4-4,60.1,42.4,30.9,29.6,22.1,17.0,58,46,30,30.43,30.07,4,0,4,0.00
2013-4-5,58.1,43.4,28.2,36.4,27.8,20.1,74,56,38,30.24,30.06,13,2,13,0.00
2013-4-6,67.8,49.8,35.4,39.2,30.9,23.0,60,49,34,30.30,29.99,10,1,10,0.00
2013-4-7,75.0,63.1,55.8,49.7,43.2,38.1,66,49,37,30.09,29.92,17,4,20,0.00
2013-4-8,72.9,61.8,51.6,57.0,51.5,45.2,85,69,57,30.10,29.96,16,2,16,0.00
2013-4-9,82.8,67.2,51.6,62.1,54.8,46.5,85,66,47,30.14,30.00,18,3,20,0.00
2013-4-10,84.9,71.3,62.6,67.3,60.2,56.2,82,69,52,30.05,29.89,19,3,19,0.00
2013-4-11,66.2,61.5,58.1,61.8,57.3,54.3,89,86,81,29.94,29.65,11,1,11,0.20
2013-4-12,58.1,46.3,40.1,54.9,39.1,32.4,89,76,61,30.02,29.61,18,4,18,0.14
2013-4-13,56.5,45.6,40.3,41.1,35.8,33.1,78,69,54,30.14,30.01,16,4,16,0.00
2013-4-14,71.8,53.0,36.0,50.5,41.2,30.8,83,66,45,30.17,29.98,7,0,7,0.00
2013-4-15,73.0,62.2,52.5,56.8,50.4,42.4,77,66,56,30.10,29.99,10,2,10,0.00
2013-4-16,78.3,62.0,54.5,65.4,55.8,50.2,89,80,63,30.28,30.04,21,2,21,0.59
2013-4-17,79.2,62.6,50.9,66.4,56.7,47.7,89,82,64,30.31,30.06,12,1,12,0.23
2013-4-18,83.7,72.1,62.4,65.8,59.9,54.7,84,67,50,30.07,29.70,21,5,21,0.00
2013-4-19,73.8,48.1,38.7,58.4,39.2,30.0,88,72,53,30.05,29.56,32,6,32,0.53
2013-4-20,50.4,40.7,34.9,32.5,30.2,27.1,83,67,47,30.49,30.05,20,3,20,0.02
2013-4-21,57.0,43.7,31.3,34.7,28.5,22.4,71,56,39,30.62,30.47,4,0,4,0.00
2013-4-22,73.8,52.9,34.5,47.1,36.3,26.2,74,55,36,30.48,30.23,2,0,2,0.00
2013-4-23,72.3,58.2,42.6,54.7,46.5,36.9,82,66,51,30.24,29.94,9,1,9,0.00
2013-4-24,63.7,49.2,36.3,53.9,42.5,31.6,87,78,62,30.31,29.87,42,4,42,0.55
2013-4-25,59.9,45.1,33.4,41.3,34.3,29.7,87,68,44,30.47,30.30,32,2,32,0.00
2013-4-26,63.0,47.8,31.8,40.0,34.4,26.7,83,62,40,30.56,30.43,3,0,3,0.00
2013-4-27,71.4,53.9,37.9,49.1,41.8,32.4,82,66,42,30.45,30.16,8,1,8,0.00
2013-4-28,68.2,59.1,54.1,60.2,53.6,48.8,88,82,73,30.16,29.93,9,1,9,0.08
2013-4-29,64.9,59.3,54.5,56.8,53.7,49.6,89,82,72,30.09,29.98,7,0,7,0.00
2013-4-30,82.0,63.3,46.6,61.4,53.1,43.6,89,72,46,30.17,30.07,6,0,6,0.00
2013-5-1,86.5,68.5,51.6,63.6,55.6,47.2,86,66,42,30.28,30.16,6,0,6,0.00
2013-5-2,76.1,66.4,58.1,58.4,54.1,50.7,78,65,52,30.33,30.19,6,0,6,0.00
2013-5-3,79.5,67.0,57.0,59.4,53.0,41.0,83,63,42,30.20,30.06,7,0,7,0.00
2013-5-4,73.2,63.9,57.4,49.9,46.1,40.6,67,53,42,30.12,30.04,7,0,7,0.00
2013-5-5,63.0,58.5,54.7,49.5,46.9,43.5,79,66,51,30.10,30.03,7,0,7,0.02
2013-5-6,61.9,57.2,53.2,57.0,52.9,48.3,89,86,79,30.09,30.02,9,1,9,0.43
2013-5-7,73.9,61.7,55.8,59.3,55.6,52.2,89,81,59,30.09,30.02,7,0,7,0.43
2013-5-8,77.5,63.2,54.1,59.7,55.4,50.9,89,77,51,30.10,30.04,8,1,13,0.16
2013-5-9,81.7,65.5,51.8,63.6,56.4,48.3,89,75,47,30.13,30.03,12,0,12,0.00
2013-5-10,69.3,62.9,58.8,63.8,59.1,55.3,89,87,81,30.10,29.91,13,0,13,0.90
2013-5-11,62.1,52.6,44.2,56.0,47.5,39.1,89,83,69,30.09,29.95,18,2,18,0.06
2013-5-12,57.0,46.9,37.9,39.0,36.2,33.3,89,68,46,30.21,30.09,33,2,33,0.00
2013-5-13,64.6,51.0,40.3,39.6,36.5,34.0,82,60,37,30.27,30.20,20,1,20,0.00
2013-5-14,84.9,63.1,43.0,61.3,48.3,35.4,79,60,44,30.23,29.92,8,1,8,0.00
2013-5-15,90.5,76.6,63.3,65.1,59.9,54.9,76,58,42,29.97,29.90,26,2,26,0.00
2013-5-16,80.1,69.2,63.0,68.8,61.9,57.6,88,78,59,30.09,29.94,16,0,16,0.78
2013-5-17,81.3,66.7,59.2,69.4,61.4,56.0,89,83,62,30.17,30.08,9,0,9,0.30
2013-5-18,78.4,68.9,62.8,68.1,63.4,59.6,89,83,66,30.18,30.07,1,0,1,0.06
2013-5-19,88.9,72.2,61.0,72.5,64.9,57.8,89,79,55,30.12,30.00,5,0,5,0.00
2013-5-20,89.4,76.3,67.3,72.6,67.5,63.1,89,76,54,30.10,29.98,8,1,8,0.00
2013-5-21,86.9,76.3,66.7,69.5,64.6,59.3,83,68,52,30.07,29.90,11,1,11,0.00
2013-5-22,80.1,70.5,65.1,66.7,62.7,59.8,88,77,60,29.95,29.84,10,1,10,0.55
2013-5-23,69.1,61.6,49.8,61.5,56.4,44.2,89,83,70,30.20,29.90,34,2,34,0.29
2013-5-24,66.9,54.9,46.9,45.2,42.7,38.6,86,66,39,30.42,30.20,20,2,20,0.00
2013-5-25,67.6,55.7,43.7,48.3,44.3,39.0,85,67,46,30.49,30.31,4,0,4,0.00
2013-5-26,75.4,61.6,50.4,52.6,47.1,42.5,80,60,43,30.40,30.28,7,0,7,0.00
2013-5-27,84.7,66.8,53.2,64.9,54.9,47.5,87,67,48,30.31,30.04,7,0,8,0.22
2013-5-28,85.3,75.5,66.6,69.1,62.9,58.6,78,66,54,30.12,30.02,13,1,13,0.00
2013-5-29,90.7,77.9,68.2,67.2,62.3,58.6,73,60,42,30.17,30.09,9,1,9,0.00
2013-5-30,90.0,78.1,68.7,71.7,66.2,62.0,80,67,51,30.24,30.10,8,1,8,0.00
2013-5-31,84.4,73.7,68.7,70.3,65.8,62.7,89,77,61,30.16,30.04,10,1,10,0.47
2013-6-1,81.1,72.7,68.2,69.4,66.7,64.5,89,82,67,30.07,29.89,10,1,10,0.00
2013-6-2,77.4,69.9,63.0,65.6,61.3,55.4,86,75,61,30.06,29.91,8,2,8,0.00
2013-6-3,70.0,60.3,52.5,55.4,51.0,46.9,81,72,54,30.17,30.05,5,0,5,0.00
2013-6-4,77.7,63.3,47.8,51.5,48.2,43.8,87,61,38,30.27,30.16,4,0,4,0.00
2013-6-5,85.8,70.3,56.5,62.9,54.8,46.5,71,59,45,30.20,29.96,3,0,3,0.00
2013-6-6,72.7,64.8,61.0,62.2,58.8,54.7,89,81,60,29.98,29.90,10,1,10,1.16
2013-6-7,75.6,64.7,57.0,61.0,56.7,53.8,89,76,57,30.01,29.91,6,0,6,0.00
2013-6-8,77.0,64.9,55.8,64.1,57.2,51.4,87,76,62,30.14,29.99,0,0,0,0.00
2013-6-9,84.0,71.2,61.0,68.5,62.9,56.6,88,76,54,30.17,30.00,6,0,6,0.00
2013-6-10,80.6,69.4,65.3,68.4,63.7,60.4,89,83,63,30.01,29.90,9,0,9,0.80
2013-6-11,90.1,73.3,63.1,70.8,65.0,59.9,89,77,49,30.07,29.95,7,1,7,0.00
2013-6-12,92.3,79.9,69.1,77.7,71.0,63.8,87,75,58,30.03,29.82,7,0,8,0.00
2013-6-13,80.4,71.4,64.6,72.0,62.3,54.6,89,74,51,30.03,29.72,40,2,40,0.49
2013-6-14,80.1,68.4,57.2,62.5,57.7,51.9,86,70,51,30.17,30.02,9,0,9,0.00
2013-6-15,86.4,70.8,57.0,67.6,60.6,53.0,88,71,51,30.23,30.05,6,0,6,0.00
2013-6-16,79.3,71.8,67.8,69.7,64.7,61.5,86,79,70,30.10,30.04,8,0,8,0.04
2013-6-17,91.9,76.3,67.5,73.6,67.7,63.0,89,76,46,30.09,29.99,5,0,5,0.00
2013-6-18,84.2,74.7,66.7,68.8,64.0,57.4,85,70,53,30.11,29.96,9,2,9,0.00
2013-6-19,85.3,69.9,57.9,60.5,56.7,53.4,86,65,41,30.22,30.11,7,0,7,0.00
2013-6-20,90.3,72.5,56.8,65.3,59.9,52.0,86,67,42,30.31,30.22,0,0,0,0.00
2013-6-21,91.9,75.7,59.9,69.2,63.4,55.4,86,68,46,30.33,30.19,3,0,3,0.00
2013-6-22,87.6,75.3,65.1,76.3,67.8,60.8,86,78,63,30.27,30.17,15,0,15,0.78
2013-6-23,93.4,76.6,65.1,73.6,67.2,61.5,89,74,49,30.25,30.14,11,0,11,0.00
2013-6-24,89.2,76.4,65.5,74.8,68.0,61.5,88,76,57,30.25,30.12,8,0,8,0.00
2013-6-25,93.0,80.2,68.9,77.2,70.9,64.8,88,74,57,30.16,29.98,8,0,8,0.00
2013-6-26,88.0,74.9,68.4,77.4,68.7,64.3,88,81,68,30.04,29.88,5,0,7,0.30
2013-6-27,87.3,75.7,68.5,73.8,68.8,65.0,89,80,61,29.91,29.79,8,1,8,0.02
2013-6-28,86.0,72.6,64.6,69.7,65.0,57.1,88,78,47,29.81,29.72,28,1,28,0.29
2013-6-29,80.4,68.5,61.0,70.2,62.6,57.8,89,82,66,29.79,29.69,0,0,0,0.00
2013-6-30,81.5,69.7,61.5,68.7,63.6,58.0,89,82,62,29.96,29.78,0,0,0,0.02
2013-7-1,75.6,67.7,63.7,68.1,63.2,59.6,89,85,76,30.05,29.94,0,0,0,0.14
2013-7-2,88.2,73.9,64.6,72.1,65.9,61.3,89,78,54,30.12,30.02,0,0,0,0.02
2013-7-3,82.8,72.7,65.1,71.1,65.8,61.3,89,80,62,30.22,30.12,0,0,0,0.12
2013-7-4,73.0,70.2,68.2,69.0,66.4,64.6,89,88,83,30.26,30.17,0,0,0,0.27
2013-7-5,80.1,72.0,66.0,71.5,66.9,62.6,89,84,74,30.25,30.18,0,0,0,0.10
2013-7-6,80.1,71.8,68.2,73.6,67.7,64.5,89,87,79,30.23,30.14,0,0,0,0.24
2013-7-7,86.4,72.6,65.3,73.5,66.9,62.0,89,83,64,30.22,30.13,0,0,0,0.00
2013-7-8,89.2,77.0,66.7,76.8,70.0,63.0,89,80,64,30.23,30.14,0,0,0,0.00
2013-7-9,89.4,80.1,73.6,77.8,72.6,68.3,85,78,66,30.18,30.08,0,0,0,0.00
2013-7-10,89.4,78.5,69.6,79.4,72.1,64.8,86,81,67,30.10,29.94,0,0,0,0.02
2013-7-11,79.3,71.6,63.5,66.7,62.7,56.8,88,75,53,30.14,30.04,0,0,0,0.00
2013-7-12,81.7,69.0,57.4,63.2,58.7,53.2,88,71,50,30.22,30.14,0,0,0,0.00
2013-7-13,86.2,74.5,63.7,69.1,64.5,59.6,88,72,53,30.26,30.17,4,0,4,0.00
2013-7-14,93.0,79.5,66.2,76.5,70.2,61.5,87,74,59,30.33,30.24,5,0,5,0.03
2013-7-15,96.6,81.4,70.9,76.1,71.7,67.1,88,74,51,30.41,30.33,2,0,2,0.00
2013-7-16,99.0,81.5,69.4,78.2,72.4,65.7,88,75,51,30.44,30.36,0,0,0,0.00
2013-7-17,94.8,82.4,71.4,76.9,73.0,67.7,88,75,55,30.44,30.29,7,0,7,0.00
2013-7-18,99.0,83.2,70.3,77.7,72.6,66.3,88,72,48,30.32,30.13,2,0,2,0.00
2013-7-19,93.7,81.8,71.2,77.9,73.2,67.2,88,76,57,30.16,29.99,0,0,0,0.00
2013-7-20,88.7,76.4,69.6,76.8,70.3,65.9,88,82,65,30.04,29.95,13,0,15,0.26
2013-7-21,83.7,74.7,66.9,75.6,69.0,63.5,89,83,66,30.09,29.99,0,0,0,0.00
2013-7-22,81.5,73.8,69.4,74.8,69.6,65.7,89,87,78,30.03,29.88,5,0,5,0.43
2013-7-23,87.1,72.8,65.8,76.3,67.8,62.5,89,85,66,29.94,29.86,0,0,0,0.06
2013-7-24,77.2,68.5,59.7,62.1,58.3,54.5,86,70,57,30.12,30.00,0,0,0,0.00
2013-7-25,79.7,65.7,53.4,60.2,55.4,49.6,88,71,48,30.20,30.12,0,0,0,0.00
2013-7-26,85.1,69.0,54.1,65.1,58.5,50.2,88,71,50,30.20,30.07,0,0,0,0.00
2013-7-27,81.3,69.0,62.4,68.7,60.9,54.5,89,77,50,30.07,29.94,0,0,0,1.71
2013-7-28,75.0,63.2,53.4,58.0,53.3,49.6,87,71,53,30.16,30.01,0,0,0,0.00
2013-7-29,81.0,65.8,54.3,61.1,55.8,49.4,87,72,50,30.29,30.15,0,0,0,0.00
2013-7-30,78.6,66.9,55.2,65.0,59.6,51.4,88,78,59,30.34,30.21,0,0,0,0.00
2013-7-31,75.6,69.2,65.3,68.6,64.5,61.3,88,85,78,30.22,30.05,0,0,0,0.00
2013-8-1,84.9,71.9,63.7,68.4,63.7,57.0,89,77,51,30.11,30.02,0,0,0,0.04
2013-8-2,85.5,69.8,56.1,68.5,61.1,52.3,88,75,55,30.12,30.05,0,0,0,0.00
2013-8-3,82.6,72.8,66.2,71.1,65.3,59.9,89,78,59,30.14,30.05,0,0,0,0.19
2013-8-4,78.6,67.0,57.0,59.9,57.0,52.4,86,71,51,30.25,30.14,0,0,0,0.00
2013-8-5,81.1,67.5,56.7,64.1,58.8,52.8,88,75,53,30.24,30.07,0,0,0,0.04
2013-8-6,83.5,70.6,59.4,70.3,63.0,55.5,88,78,64,30.09,30.02,0,0,0,0.00
2013-8-7,87.4,75.3,66.7,75.6,69.3,63.0,89,82,68,30.06,29.98,0,0,0,0.00
2013-8-8,86.2,74.9,68.9,77.8,70.6,65.5,89,87,74,30.07,29.99,0,0,0,1.38
2013-8-9,83.5,73.7,68.9,72.1,68.4,65.5,90,84,67,30.14,30.01,0,0,0,0.07
2013-8-10,86.5,74.6,66.2,72.7,67.8,62.8,89,80,62,30.22,30.14,0,0,0,0.00
2013-8-11,87.3,73.8,63.7,73.8,66.7,60.3,89,79,56,30.20,30.14,0,0,0,0.00
2013-8-12,88.9,74.1,63.1,72.1,66.2,59.6,89,78,55,30.19,29.98,0,0,0,0.00
2013-8-13,77.9,69.4,56.5,67.6,61.0,49.3,88,75,58,30.17,29.95,0,0,0,0.00
2013-8-14,71.8,59.1,50.5,54.2,50.0,46.7,88,73,53,30.28,30.17,0,0,0,0.00
2013-8-15,75.6,60.1,47.8,58.2,51.7,44.2,88,75,52,30.29,30.19,0,0,0,0.00
2013-8-16,76.1,64.1,52.5,58.9,54.5,48.7,88,73,52,30.27,30.21,0,0,0,0.00
2013-8-17,83.1,67.4,54.1,64.0,57.5,50.0,87,72,50,30.30,30.23,0,0,0,0.00
2013-8-18,87.3,69.0,55.9,65.6,58.9,51.9,89,72,47,30.29,30.19,0,0,0,0.00
2013-8-19,88.2,70.5,58.5,66.8,60.4,54.9,89,73,46,30.26,30.17,0,0,0,0.00
2013-8-20,88.9,71.8,58.8,70.4,62.6,55.0,88,75,49,30.29,30.20,0,0,0,0.00
2013-8-21,90.9,74.3,64.2,74.1,66.8,60.3,88,78,56,30.27,30.15,0,0,0,0.00
2013-8-22,84.4,71.7,66.7,72.7,66.7,63.0,89,84,66,30.22,30.12,0,0,0,0.24
2013-8-23,84.7,72.3,63.3,71.0,65.3,60.1,90,80,56,30.26,30.15,0,0,0,0.00
2013-8-24,86.4,70.7,57.0,68.1,61.1,52.8,87,73,52,30.38,30.26,0,0,0,0.00
2013-8-25,89.2,71.7,57.9,67.7,61.3,54.4,89,72,45,30.43,30.32,0,0,0,0.00
2013-8-26,90.5,73.2,58.8,74.6,65.2,55.0,88,77,57,30.36,30.17,12,0,12,0.00
2013-8-27,91.9,78.0,66.7,78.4,71.2,62.7,89,80,64,30.18,30.06,0,0,0,0.00
2013-8-28,91.8,80.8,73.9,77.3,72.8,69.7,88,78,61,30.08,29.99,3,0,3,0.00
2013-8-29,86.4,75.0,67.8,71.8,68.6,64.4,89,81,62,30.17,30.08,0,0,0,0.00
2013-8-30,93.4,76.0,63.7,73.7,67.4,60.5,89,76,52,30.11,29.93,0,0,0,0.00
2013-8-31,92.7,75.8,69.4,75.2,69.0,65.7,89,80,56,29.98,29.89,0,0,0,0.10
2013-9-1,86.7,74.7,67.3,74.6,68.4,63.9,89,81,65,29.94,29.87,0,0,0,0.00
2013-9-2,86.2,73.4,64.6,72.5,66.2,58.1,89,79,56,30.01,29.89,0,0,0,0.00
2013-9-3,77.4,64.1,54.7,59.2,55.3,51.0,89,74,53,30.17,30.01,0,0,0,0.00
2013-9-4,84.7,65.9,51.4,64.5,56.7,47.6,89,74,49,30.25,30.16,0,0,0,0.00
2013-9-5,85.6,68.5,55.2,66.1,57.5,49.2,89,70,51,30.31,30.22,0,0,0,0.00
2013-9-6,83.8,65.1,49.8,57.2,51.0,44.5,85,63,38,30.35,30.21,0,0,0,0.00
2013-9-7,89.4,69.3,53.4,69.3,59.2,48.6,87,72,49,30.21,30.06,0,0,0,0.02
2013-9-8,92.1,75.4,64.2,70.5,66.2,60.7,89,75,45,30.12,30.04,0,0,0,0.00
2013-9-9,94.6,78.0,64.0,72.7,67.2,60.0,89,71,48,30.14,30.06,0,0,0,0.00
2013-9-10,97.2,81.7,74.1,78.1,72.0,68.5,85,73,51,30.23,30.12,2,0,2,0.00
2013-9-11,96.4,79.8,69.3,77.3,69.9,65.2,88,73,49,30.25,30.11,0,0,0,0.00
2013-9-12,81.5,72.7,64.4,70.9,66.3,58.9,89,81,59,30.12,29.96,15,0,15,0.45
2013-9-13,64.2,58.3,51.8,59.1,48.9,43.6,87,72,54,30.20,30.03,17,3,17,0.00
2013-9-14,74.1,55.9,42.4,50.1,44.3,38.2,87,68,40,30.29,30.19,8,0,8,0.00
2013-9-15,77.7,59.6,43.7,56.7,49.3,39.5,88,71,47,30.25,30.12,17,1,17,0.00
2013-9-16,70.3,61.1,55.2,56.9,54.1,49.6,89,79,58,30.39,30.19,15,2,17,0.02
2013-9-17,75.9,60.6,48.4,55.5,50.7,45.2,89,72,46,30.43,30.27,7,0,7,0.00
2013-9-18,84.4,66.9,54.7,63.2,57.4,48.6,87,73,45,30.27,30.14,8,1,8,0.00
2013-9-19,81.3,69.8,64.2,70.5,64.7,59.8,90,84,67,30.19,30.06,7,0,7,0.41
2013-9-20,87.1,72.6,66.7,72.1,66.8,63.0,90,83,59,30.10,29.90,11,1,19,0.47
2013-9-21,73.2,64.5,55.2,65.5,56.9,47.2,90,77,53,29.99,29.81,19,5,20,0.51
2013-9-22,67.8,55.7,46.6,49.4,45.4,41.8,89,70,46,30.12,29.99,22,3,22,0.00
2013-9-23,69.6,55.0,41.7,50.9,45.2,37.8,89,71,48,30.23,30.12,6,0,6,0.00
2013-9-24,75.4,56.9,42.4,56.6,47.4,38.1,88,72,50,30.20,30.03,7,0,7,0.00
2013-9-25,74.5,59.8,49.8,57.0,50.1,45.1,88,72,50,30.05,29.98,10,0,10,0.00
2013-9-26,80.4,60.5,46.2,62.1,51.0,42.5,89,73,44,30.18,30.03,8,0,8,0.00
2013-9-27,81.0,61.0,45.1,56.2,48.5,40.9,88,67,36,30.28,30.18,7,0,7,0.00
2013-9-28,83.1,62.5,46.2,60.2,51.9,41.7,88,70,45,30.29,30.15,12,1,12,0.00
2013-9-29,65.8,59.8,52.5,60.5,55.7,48.2,89,86,79,30.17,30.11,11,1,11,0.06
2013-9-30,70.9,63.4,58.8,65.2,59.8,55.6,90,88,79,30.14,30.06,10,0,10,0.00
2013-10-1,79.7,64.6,52.7,66.1,58.5,49.6,90,81,61,30.19,30.11,13,1,13,0.00
2013-10-2,82.2,67.2,55.6,70.5,61.7,52.4,90,83,67,30.22,30.14,8,0,8,0.00
2013-10-3,79.2,69.0,63.1,72.3,65.2,59.9,90,88,78,30.19,30.10,7,0,7,0.55
2013-10-4,79.0,69.8,64.4,72.9,66.0,61.5,90,88,78,30.19,30.11,13,0,13,0.84
2013-10-5,79.0,69.9,64.0,72.7,66.2,61.2,90,88,78,30.16,30.03,22,1,22,0.34
2013-10-6,72.1,63.3,53.4,68.4,60.1,50.2,90,89,87,30.04,29.81,108,2,108,1.86
2013-10-7,61.9,51.9,45.5,50.2,45.3,41.4,90,79,61,30.26,29.92,19,3,108,0.00
2013-10-8,70.9,52.6,40.3,51.8,43.9,37.3,90,74,46,30.38,30.25,7,0,7,0.00
2013-10-9,74.3,55.2,41.5,54.2,45.8,38.2,89,73,46,30.35,30.26,5,0,5,0.00
2013-10-10,76.3,55.5,40.5,51.6,44.1,36.6,89,69,37,30.30,30.17,12,0,12,0.00
2013-10-11,79.5,58.7,43.7,56.3,48.3,39.8,89,71,43,30.22,30.12,5,0,5,0.00
2013-10-12,81.7,61.0,47.1,62.5,53.0,43.8,89,77,50,30.22,30.14,6,0,6,0.00
2013-10-13,74.8,61.8,52.3,58.3,51.4,42.1,90,71,44,30.40,30.21,19,5,19,0.00
2013-10-14,72.1,56.2,44.8,52.3,45.1,39.9,87,68,42,30.44,30.28,7,2,8,0.00
2013-10-15,72.1,58.4,46.8,64.6,53.7,41.4,90,85,74,30.30,30.04,17,1,17,0.20
2013-10-16,68.7,60.8,48.6,60.8,54.6,42.8,90,81,58,30.07,29.99,14,2,14,0.15
2013-10-17,55.2,47.3,40.3,50.9,42.8,37.0,89,84,79,30.08,29.96,15,1,15,0.10
2013-10-18,66.0,52.0,41.5,51.1,43.9,38.5,90,75,52,30.13,30.03,13,2,13,0.00
2013-10-19,50.9,45.8,41.4,43.6,40.8,36.1,89,82,71,30.08,29.96,13,3,16,0.18
2013-10-20,63.9,48.9,37.2,47.6,40.1,33.4,87,73,52,30.12,30.06,18,3,18,0.00
2013-10-21,66.0,52.7,42.1,49.1,43.2,36.6,83,71,53,30.09,29.98,18,4,18,0.02
2013-10-22,55.6,43.7,32.2,41.3,31.9,25.5,84,64,43,30.14,29.95,20,3,20,0.02
2013-10-23,47.8,40.1,33.8,37.8,34.3,30.4,90,80,58,30.12,29.86,14,5,17,0.12
2013-10-24,43.5,39.3,36.9,35.1,32.9,30.8,82,78,70,30.34,30.11,16,3,16,0.00
2013-10-25,50.5,38.0,28.8,34.3,28.1,24.2,84,69,47,30.51,30.34,16,2,16,0.00
2013-10-26,50.4,40.4,32.2,37.9,30.7,25.0,76,69,60,30.35,30.01,19,3,19,0.00
2013-10-27,58.5,42.8,30.2,40.6,33.1,26.2,87,70,48,30.21,30.13,9,1,10,0.00
2013-10-28,61.5,43.4,28.9,41.5,32.8,24.7,87,68,43,30.39,30.18,7,0,7,0.00
2013-10-29,55.8,44.8,32.2,45.6,37.8,28.3,88,77,66,30.46,30.30,5,0,5,0.00
2013-10-30,60.8,54.7,48.2,57.7,51.4,43.3,90,89,79,30.30,30.08,7,0,7,0.07
2013-10-31,63.7,61.0,56.8,60.5,57.6,53.8,90,88,84,30.09,29.44,34,6,34,1.00
2013-11-1,61.7,54.5,47.5,54.0,47.4,42.0,90,78,58,29.86,29.50,21,5,21,0.02
2013-11-2,54.3,48.7,44.4,42.9,40.6,37.6,85,74,58,30.17,29.84,21,6,21,0.00
2013-11-3,52.5,43.9,37.4,41.8,37.4,31.8,88,78,63,30.46,30.17,10,1,10,0.00
2013-11-4,56.1,46.0,36.0,42.5,37.8,31.2,85,74,60,30.50,30.38,10,1,10,0.00
2013-11-5,58.8,52.4,48.4,48.2,44.1,39.5,86,74,62,30.50,30.30,10,0,10,0.00
2013-11-6,61.3,54.5,44.4,55.4,47.4,39.4,90,78,65,30.30,30.07,34,6,34,0.24
2013-11-7,48.4,42.4,38.5,41.4,33.5,27.5,89,72,50,30.35,30.13,22,6,22,0.04
2013-11-8,49.8,39.1,30.0,36.6,30.9,26.3,87,73,53,30.45,30.28,18,2,18,0.00
2013-11-9,60.6,48.3,37.8,41.2,35.8,28.9,75,63,48,30.31,30.09,23,5,23,0.00
2013-11-10,48.9,42.0,29.5,39.9,31.7,23.8,79,67,55,30.43,30.17,18,6,24,0.00
2013-11-11,49.5,39.8,28.4,42.1,33.4,23.1,89,78,62,30.39,30.16,24,4,24,0.08
2013-11-12,33.6,28.7,23.5,29.6,22.8,18.6,90,78,65,30.68,30.36,21,9,27,0.00
2013-11-13,40.1,29.3,19.6,24.0,20.1,15.7,87,70,49,30.69,30.46,10,2,14,0.00
2013-11-14,52.7,39.0,28.2,29.9,23.8,20.0,72,56,37,30.46,30.23,20,4,20,0.00
2013-11-15,49.6,40.3,36.0,38.2,25.8,22.5,72,56,48,30.25,30.17,11,1,11,0.00